Aviation Digital Data Service (ADDS)

Output produced by METARs form (1439 UTC 10 August 2022)
found at http://www.aviationweather.gov/metar/data/
 
METAR text: KNKT 101356Z 23009KT 10SM CLR 29/24 A3016 RMK AO2 SLP210 T02940244
Conditions at: KNKT (CHERRY POINT , NC, US) observed 1356 UTC 10 August 2022
Temperature: 29.4°C (85°F)
Dewpoint: 24.4°C (76°F) [RH = 75%]
Pressure (altimeter): 30.16 inches Hg (1021.4 mb)
[Sea-level pressure: 1021.0 mb]
Winds: from the SW (230 degrees) at 10 MPH (9 knots; 4.6 m/s)
Visibility: 10 or more miles (16+ km)
Ceiling: at least 12,000 feet AGL
Clouds: sky clear below 12,000 feet AGL
Weather: no significant weather observed at this time

METAR text: KNKT 101256Z 23010KT 10SM CLR 28/24 A3016 RMK AO2 SLP208 T02830239
Conditions at: KNKT (CHERRY POINT , NC, US) observed 1256 UTC 10 August 2022
Temperature: 28.3°C (83°F)
Dewpoint: 23.9°C (75°F) [RH = 77%]
Pressure (altimeter): 30.16 inches Hg (1021.4 mb)
[Sea-level pressure: 1020.8 mb]
Winds: from the SW (230 degrees) at 12 MPH (10 knots; 5.1 m/s)
Visibility: 10 or more miles (16+ km)
Ceiling: at least 12,000 feet AGL
Clouds: sky clear below 12,000 feet AGL
Weather: no significant weather observed at this time

METAR text: KNKT 101156Z 24010KT 10SM CLR 27/24 A3015 RMK AO2 SLP206 T02670239 10267 20250 53009
Conditions at: KNKT (CHERRY POINT , NC, US) observed 1156 UTC 10 August 2022
Temperature: 26.7°C (80°F)
Dewpoint: 23.9°C (75°F) [RH = 85%]
Pressure (altimeter): 30.15 inches Hg (1021.1 mb)
[Sea-level pressure: 1020.6 mb]
Winds: from the WSW (240 degrees) at 12 MPH (10 knots; 5.1 m/s)
Visibility: 10 or more miles (16+ km)
Ceiling: at least 12,000 feet AGL
Clouds: sky clear below 12,000 feet AGL
Weather: no significant weather observed at this time

METAR text: KNKT 101056Z 22006KT 7SM SKC 25/23 A3014 RMK SLP204 T02500233
Conditions at: KNKT (CHERRY POINT , NC, US) observed 1056 UTC 10 August 2022
Temperature: 25.0°C (77°F)
Dewpoint: 23.3°C (74°F) [RH = 90%]
Pressure (altimeter): 30.14 inches Hg (1020.7 mb)
[Sea-level pressure: 1020.4 mb]
Winds: from the SW (220 degrees) at 7 MPH (6 knots; 3.1 m/s)
Visibility: 7 miles (11 km)
Ceiling: at least 12,000 feet AGL
Clouds: clear skies
Weather: no significant weather observed at this time

METAR text: KNKT 100956Z 23007KT 7SM SKC 25/23 A3013 RMK SLP200 T02500228
Conditions at: KNKT (CHERRY POINT , NC, US) observed 0956 UTC 10 August 2022
Temperature: 25.0°C (77°F)
Dewpoint: 22.8°C (73°F) [RH = 88%]
Pressure (altimeter): 30.13 inches Hg (1020.4 mb)
[Sea-level pressure: 1020.0 mb]
Winds: from the SW (230 degrees) at 8 MPH (7 knots; 3.6 m/s)
Visibility: 7 miles (11 km)
Ceiling: at least 12,000 feet AGL
Clouds: clear skies
Weather: no significant weather observed at this time

METAR text: KNKT 100856Z 23007KT 7SM SKC 25/23 A3012 RMK SLP198 T02500228 55001
Conditions at: KNKT (CHERRY POINT , NC, US) observed 0856 UTC 10 August 2022
Temperature: 25.0°C (77°F)
Dewpoint: 22.8°C (73°F) [RH = 88%]
Pressure (altimeter): 30.12 inches Hg (1020.1 mb)
[Sea-level pressure: 1019.8 mb]
Winds: from the SW (230 degrees) at 8 MPH (7 knots; 3.6 m/s)
Visibility: 7 miles (11 km)
Ceiling: at least 12,000 feet AGL
Clouds: clear skies
Weather: no significant weather observed at this time

METAR text: KNKT 100756Z 23008KT 7SM SKC 26/23 A3012 RMK SLP197 T02560228
Conditions at: KNKT (CHERRY POINT , NC, US) observed 0756 UTC 10 August 2022
Temperature: 25.6°C (78°F)
Dewpoint: 22.8°C (73°F) [RH = 85%]
Pressure (altimeter): 30.12 inches Hg (1020.1 mb)
[Sea-level pressure: 1019.7 mb]
Winds: from the SW (230 degrees) at 9 MPH (8 knots; 4.1 m/s)
Visibility: 7 miles (11 km)
Ceiling: at least 12,000 feet AGL
Clouds: clear skies
Weather: no significant weather observed at this time

METAR text: KNKT 100656Z 23007KT 7SM SKC 26/23 A3012 RMK SLP197 T02560233
Conditions at: KNKT (CHERRY POINT , NC, US) observed 0656 UTC 10 August 2022
Temperature: 25.6°C (78°F)
Dewpoint: 23.3°C (74°F) [RH = 87%]
Pressure (altimeter): 30.12 inches Hg (1020.1 mb)
[Sea-level pressure: 1019.7 mb]
Winds: from the SW (230 degrees) at 8 MPH (7 knots; 3.6 m/s)
Visibility: 7 miles (11 km)
Ceiling: at least 12,000 feet AGL
Clouds: clear skies
Weather: no significant weather observed at this time

METAR text: KNKT 100556Z 23008KT 7SM SKC 26/24 A3013 RMK SLP198 T02610239 10278 20261 50007
Conditions at: KNKT (CHERRY POINT , NC, US) observed 0556 UTC 10 August 2022
Temperature: 26.1°C (79°F)
Dewpoint: 23.9°C (75°F) [RH = 88%]
Pressure (altimeter): 30.13 inches Hg (1020.4 mb)
[Sea-level pressure: 1019.8 mb]
Winds: from the SW (230 degrees) at 9 MPH (8 knots; 4.1 m/s)
Visibility: 7 miles (11 km)
Ceiling: at least 12,000 feet AGL
Clouds: clear skies
Weather: no significant weather observed at this time

METAR text: KNKT 100456Z 22007KT 7SM SKC 27/24 A3013 RMK SLP199 T02670239 403220233
Conditions at: KNKT (CHERRY POINT , NC, US) observed 0456 UTC 10 August 2022
Temperature: 26.7°C (80°F)
Dewpoint: 23.9°C (75°F) [RH = 85%]
Pressure (altimeter): 30.13 inches Hg (1020.4 mb)
[Sea-level pressure: 1019.9 mb]
Winds: from the SW (220 degrees) at 8 MPH (7 knots; 3.6 m/s)
Visibility: 7 miles (11 km)
Ceiling: at least 12,000 feet AGL
Clouds: clear skies
Weather: no significant weather observed at this time

METAR text: KNKT 100356Z 23008KT 7SM SKC 27/24 A3012 RMK SLP196 T02720239
Conditions at: KNKT (CHERRY POINT , NC, US) observed 0356 UTC 10 August 2022
Temperature: 27.2°C (81°F)
Dewpoint: 23.9°C (75°F) [RH = 82%]
Pressure (altimeter): 30.12 inches Hg (1020.1 mb)
[Sea-level pressure: 1019.6 mb]
Winds: from the SW (230 degrees) at 9 MPH (8 knots; 4.1 m/s)
Visibility: 7 miles (11 km)
Ceiling: at least 12,000 feet AGL
Clouds: clear skies
Weather: no significant weather observed at this time

METAR text: KNKT 100256Z 22009G17KT 7SM SKC 27/24 A3011 RMK SLP192 T02720239 51011
Conditions at: KNKT (CHERRY POINT , NC, US) observed 0256 UTC 10 August 2022
Temperature: 27.2°C (81°F)
Dewpoint: 23.9°C (75°F) [RH = 82%]
Pressure (altimeter): 30.11 inches Hg (1019.7 mb)
[Sea-level pressure: 1019.2 mb]
Winds: from the SW (220 degrees) at 10 MPH (9 knots; 4.6 m/s)
gusting to 20 MPH (17 knots; 8.7 m/s)
Visibility: 7 miles (11 km)
Ceiling: at least 12,000 feet AGL
Clouds: clear skies
Weather: no significant weather observed at this time

METAR text: KNKT 100156Z 21010KT 7SM SKC 27/24 A3010 RMK SLP189 T02720239
Conditions at: KNKT (CHERRY POINT , NC, US) observed 0156 UTC 10 August 2022
Temperature: 27.2°C (81°F)
Dewpoint: 23.9°C (75°F) [RH = 82%]
Pressure (altimeter): 30.10 inches Hg (1019.4 mb)
[Sea-level pressure: 1018.9 mb]
Winds: from the SSW (210 degrees) at 12 MPH (10 knots; 5.1 m/s)
Visibility: 7 miles (11 km)
Ceiling: at least 12,000 feet AGL
Clouds: clear skies
Weather: no significant weather observed at this time

METAR text: KNKT 100056Z 21009G19KT 7SM SKC 27/23 A3009 RMK SLP185 T02720233
Conditions at: KNKT (CHERRY POINT , NC, US) observed 0056 UTC 10 August 2022
Temperature: 27.2°C (81°F)
Dewpoint: 23.3°C (74°F) [RH = 79%]
Pressure (altimeter): 30.09 inches Hg (1019.0 mb)
[Sea-level pressure: 1018.5 mb]
Winds: from the SSW (210 degrees) at 10 MPH (9 knots; 4.6 m/s)
gusting to 22 MPH (19 knots; 9.8 m/s)
Visibility: 7 miles (11 km)
Ceiling: at least 12,000 feet AGL
Clouds: clear skies
Weather: no significant weather observed at this time

METAR text: KNKT 092156Z 20012G20KT 7SM FEW100 30/22 A3006 RMK SLP177 T03000222
Conditions at: KNKT (CHERRY POINT , NC, US) observed 2156 UTC 09 August 2022
Temperature: 30.0°C (86°F)
Dewpoint: 22.2°C (72°F) [RH = 63%]
Pressure (altimeter): 30.06 inches Hg (1018.0 mb)
[Sea-level pressure: 1017.7 mb]
Winds: from the SSW (200 degrees) at 14 MPH (12 knots; 6.2 m/s)
gusting to 23 MPH (20 knots; 10.3 m/s)
Visibility: 7 miles (11 km)
Ceiling: at least 12,000 feet AGL
Clouds: few clouds at 10000 feet AGL
Weather: no significant weather observed at this time

METAR text: KNKT 092056Z 20010G19KT 7SM FEW030 SCT050 30/23 A3007 RMK SLP180 P0000 60000 T03000233 56013
Conditions at: KNKT (CHERRY POINT , NC, US) observed 2056 UTC 09 August 2022
Temperature: 30.0°C (86°F)
Dewpoint: 23.3°C (74°F) [RH = 67%]
Pressure (altimeter): 30.07 inches Hg (1018.4 mb)
[Sea-level pressure: 1018.0 mb]
Winds: from the SSW (200 degrees) at 12 MPH (10 knots; 5.1 m/s)
gusting to 22 MPH (19 knots; 9.8 m/s)
Visibility: 7 miles (11 km)
Ceiling: at least 12,000 feet AGL
Clouds: few clouds at 3000 feet AGL
scattered clouds at 5000 feet AGL
Weather: no significant weather observed at this time

METAR text: KNKT 091956Z 20012G20KT 7SM FEW030 SCT048 31/24 A3008 RMK SLP182 T03060239
Conditions at: KNKT (CHERRY POINT , NC, US) observed 1956 UTC 09 August 2022
Temperature: 30.6°C (87°F)
Dewpoint: 23.9°C (75°F) [RH = 68%]
Pressure (altimeter): 30.08 inches Hg (1018.7 mb)
[Sea-level pressure: 1018.2 mb]
Winds: from the SSW (200 degrees) at 14 MPH (12 knots; 6.2 m/s)
gusting to 23 MPH (20 knots; 10.3 m/s)
Visibility: 7 miles (11 km)
Ceiling: at least 12,000 feet AGL
Clouds: few clouds at 3000 feet AGL
scattered clouds at 4800 feet AGL
Weather: no significant weather observed at this time

METAR text: KNKT 091856Z 19012G18KT 7SM BKN038 32/24 A3009 RMK SLP185 T03170239
Conditions at: KNKT (CHERRY POINT , NC, US) observed 1856 UTC 09 August 2022
Temperature: 31.7°C (89°F)
Dewpoint: 23.9°C (75°F) [RH = 63%]
Pressure (altimeter): 30.09 inches Hg (1019.0 mb)
[Sea-level pressure: 1018.5 mb]
Winds: from the S (190 degrees) at 14 MPH (12 knots; 6.2 m/s)
gusting to 21 MPH (18 knots; 9.3 m/s)
Visibility: 7 miles (11 km)
Ceiling: 3800 feet AGL
Clouds: broken clouds at 3800 feet AGL
Weather: no significant weather observed at this time

METAR text: KNKT 091756Z 18011KT 7SM SCT037 BKN043 BKN050 31/24 A3011 RMK SLP192 T03110244 10322 20256 58012
Conditions at: KNKT (CHERRY POINT , NC, US) observed 1756 UTC 09 August 2022
Temperature: 31.1°C (88°F)
Dewpoint: 24.4°C (76°F) [RH = 68%]
Pressure (altimeter): 30.11 inches Hg (1019.7 mb)
[Sea-level pressure: 1019.2 mb]
Winds: from the S (180 degrees) at 13 MPH (11 knots; 5.7 m/s)
Visibility: 7 miles (11 km)
Ceiling: 4300 feet AGL
Clouds: scattered clouds at 3700 feet AGL
broken clouds at 4300 feet AGL
broken clouds at 5000 feet AGL
Weather: no significant weather observed at this time

METAR text: KNKT 091656Z 26008KT 7SM SCT037 31/23 A3012 RMK SLP196 T03060228
Conditions at: KNKT (CHERRY POINT , NC, US) observed 1656 UTC 09 August 2022
Temperature: 30.6°C (87°F)
Dewpoint: 22.8°C (73°F) [RH = 63%]
Pressure (altimeter): 30.12 inches Hg (1020.1 mb)
[Sea-level pressure: 1019.6 mb]
Winds: from the W (260 degrees) at 9 MPH (8 knots; 4.1 m/s)
Visibility: 7 miles (11 km)
Ceiling: at least 12,000 feet AGL
Clouds: scattered clouds at 3700 feet AGL
Weather: no significant weather observed at this time

METAR text: KNKT 091556Z 24009KT 7SM FEW033 31/23 A3013 RMK SLP201 T03110233
Conditions at: KNKT (CHERRY POINT , NC, US) observed 1556 UTC 09 August 2022
Temperature: 31.1°C (88°F)
Dewpoint: 23.3°C (74°F) [RH = 63%]
Pressure (altimeter): 30.13 inches Hg (1020.4 mb)
[Sea-level pressure: 1020.1 mb]
Winds: from the WSW (240 degrees) at 10 MPH (9 knots; 4.6 m/s)
Visibility: 7 miles (11 km)
Ceiling: at least 12,000 feet AGL
Clouds: few clouds at 3300 feet AGL
Weather: no significant weather observed at this time

METAR text: KNKT 091456Z 25005G15KT 7SM FEW050 SCT120 30/23 A3014 RMK SLP204 T03000233 50000
Conditions at: KNKT (CHERRY POINT , NC, US) observed 1456 UTC 09 August 2022
Temperature: 30.0°C (86°F)
Dewpoint: 23.3°C (74°F) [RH = 67%]
Pressure (altimeter): 30.14 inches Hg (1020.7 mb)
[Sea-level pressure: 1020.4 mb]
Winds: from the WSW (250 degrees) at 6 MPH (5 knots; 2.6 m/s)
gusting to 17 MPH (15 knots; 7.7 m/s)
Visibility: 7 miles (11 km)
Ceiling: at least 12,000 feet AGL
Clouds: few clouds at 5000 feet AGL
scattered clouds at 12000 feet AGL
Weather: no significant weather observed at this time

METAR text: KNKT 091356Z 25009KT 7SM FEW050 29/23 A3015 RMK SLP207 T02890233
Conditions at: KNKT (CHERRY POINT , NC, US) observed 1356 UTC 09 August 2022
Temperature: 28.9°C (84°F)
Dewpoint: 23.3°C (74°F) [RH = 72%]
Pressure (altimeter): 30.15 inches Hg (1021.1 mb)
[Sea-level pressure: 1020.7 mb]
Winds: from the WSW (250 degrees) at 10 MPH (9 knots; 4.6 m/s)
Visibility: 7 miles (11 km)
Ceiling: at least 12,000 feet AGL
Clouds: few clouds at 5000 feet AGL
Weather: no significant weather observed at this time

METAR text: KNKT 091256Z 25010KT 7SM SKC 28/23 A3015 RMK SLP206 T02780228
Conditions at: KNKT (CHERRY POINT , NC, US) observed 1256 UTC 09 August 2022
Temperature: 27.8°C (82°F)
Dewpoint: 22.8°C (73°F) [RH = 74%]
Pressure (altimeter): 30.15 inches Hg (1021.1 mb)
[Sea-level pressure: 1020.6 mb]
Winds: from the WSW (250 degrees) at 12 MPH (10 knots; 5.1 m/s)
Visibility: 7 miles (11 km)
Ceiling: at least 12,000 feet AGL
Clouds: clear skies
Weather: no significant weather observed at this time

METAR text: KNKT 091156Z 23006KT 7SM SKC 26/23 A3014 RMK SLP204 T02560228 10256 29233 53007
Conditions at: KNKT (CHERRY POINT , NC, US) observed 1156 UTC 09 August 2022
Temperature: 25.6°C (78°F)
Dewpoint: 22.8°C (73°F) [RH = 85%]
Pressure (altimeter): 30.14 inches Hg (1020.7 mb)
[Sea-level pressure: 1020.4 mb]
Winds: from the SW (230 degrees) at 7 MPH (6 knots; 3.1 m/s)
Visibility: 7 miles (11 km)
Ceiling: at least 12,000 feet AGL
Clouds: clear skies
Weather: no significant weather observed at this time

METAR text: KNKT 091056Z 21003KT 7SM SKC 24/22 A3014 RMK SLP202 T02390222
Conditions at: KNKT (CHERRY POINT , NC, US) observed 1056 UTC 09 August 2022
Temperature: 23.9°C (75°F)
Dewpoint: 22.2°C (72°F) [RH = 90%]
Pressure (altimeter): 30.14 inches Hg (1020.7 mb)
[Sea-level pressure: 1020.2 mb]
Winds: from the SSW (210 degrees) at 3 MPH (3 knots; 1.5 m/s)
Visibility: 7 miles (11 km)
Ceiling: at least 12,000 feet AGL
Clouds: clear skies
Weather: no significant weather observed at this time

METAR text: KNKT 090956Z 22006KT 7SM SKC 24/22 A3012 RMK SLP197 T02390222
Conditions at: KNKT (CHERRY POINT , NC, US) observed 0956 UTC 09 August 2022
Temperature: 23.9°C (75°F)
Dewpoint: 22.2°C (72°F) [RH = 90%]
Pressure (altimeter): 30.12 inches Hg (1020.1 mb)
[Sea-level pressure: 1019.7 mb]
Winds: from the SW (220 degrees) at 7 MPH (6 knots; 3.1 m/s)
Visibility: 7 miles (11 km)
Ceiling: at least 12,000 feet AGL
Clouds: clear skies
Weather: no significant weather observed at this time

METAR text: KNKT 090856Z 24007KT 7SM SKC 24/22 A3012 RMK SLP197 T02440222 53001
Conditions at: KNKT (CHERRY POINT , NC, US) observed 0856 UTC 09 August 2022
Temperature: 24.4°C (76°F)
Dewpoint: 22.2°C (72°F) [RH = 88%]
Pressure (altimeter): 30.12 inches Hg (1020.1 mb)
[Sea-level pressure: 1019.7 mb]
Winds: from the WSW (240 degrees) at 8 MPH (7 knots; 3.6 m/s)
Visibility: 7 miles (11 km)
Ceiling: at least 12,000 feet AGL
Clouds: clear skies
Weather: no significant weather observed at this time

METAR text: KNKT 090756Z 23005KT 7SM SKC 24/22 A3012 RMK SLP197 T02390222
Conditions at: KNKT (CHERRY POINT , NC, US) observed 0756 UTC 09 August 2022
Temperature: 23.9°C (75°F)
Dewpoint: 22.2°C (72°F) [RH = 90%]
Pressure (altimeter): 30.12 inches Hg (1020.1 mb)
[Sea-level pressure: 1019.7 mb]
Winds: from the SW (230 degrees) at 6 MPH (5 knots; 2.6 m/s)
Visibility: 7 miles (11 km)
Ceiling: at least 12,000 feet AGL
Clouds: clear skies
Weather: no significant weather observed at this time

METAR text: KNKT 090656Z 22004KT 7SM SKC 24/22 A3012 RMK SLP194 T02390222
Conditions at: KNKT (CHERRY POINT , NC, US) observed 0656 UTC 09 August 2022
Temperature: 23.9°C (75°F)
Dewpoint: 22.2°C (72°F) [RH = 90%]
Pressure (altimeter): 30.12 inches Hg (1020.1 mb)
[Sea-level pressure: 1019.4 mb]
Winds: from the SW (220 degrees) at 5 MPH (4 knots; 2.1 m/s)
Visibility: 7 miles (11 km)
Ceiling: at least 12,000 feet AGL
Clouds: clear skies
Weather: no significant weather observed at this time

METAR text: KNKT 090556Z 22006KT 7SM SKC 24/22 A3012 RMK SLP196 T02440217 10267 51002
Conditions at: KNKT (CHERRY POINT , NC, US) observed 0556 UTC 09 August 2022
Temperature: 24.4°C (76°F)
Dewpoint: 21.7°C (71°F) [RH = 85%]
Pressure (altimeter): 30.12 inches Hg (1020.1 mb)
[Sea-level pressure: 1019.6 mb]
Winds: from the SW (220 degrees) at 7 MPH (6 knots; 3.1 m/s)
Visibility: 7 miles (11 km)
Ceiling: at least 12,000 feet AGL
Clouds: clear skies
Weather: no significant weather observed at this time

METAR text: KNKT 090456Z 21007KT 7SM SKC 26/23 A3012 RMK SLP195 T02560228 403110228
Conditions at: KNKT (CHERRY POINT , NC, US) observed 0456 UTC 09 August 2022
Temperature: 25.6°C (78°F)
Dewpoint: 22.8°C (73°F) [RH = 85%]
Pressure (altimeter): 30.12 inches Hg (1020.1 mb)
[Sea-level pressure: 1019.5 mb]
Winds: from the SSW (210 degrees) at 8 MPH (7 knots; 3.6 m/s)
Visibility: 7 miles (11 km)
Ceiling: at least 12,000 feet AGL
Clouds: clear skies
Weather: no significant weather observed at this time

METAR text: KNKT 090356Z 21007KT 7SM SKC 26/23 A3012 RMK SLP197 T02560228
Conditions at: KNKT (CHERRY POINT , NC, US) observed 0356 UTC 09 August 2022
Temperature: 25.6°C (78°F)
Dewpoint: 22.8°C (73°F) [RH = 85%]
Pressure (altimeter): 30.12 inches Hg (1020.1 mb)
[Sea-level pressure: 1019.7 mb]
Winds: from the SSW (210 degrees) at 8 MPH (7 knots; 3.6 m/s)
Visibility: 7 miles (11 km)
Ceiling: at least 12,000 feet AGL
Clouds: clear skies
Weather: no significant weather observed at this time

METAR text: KNKT 090256Z 19006KT 7SM SKC 26/23 A3011 RMK SLP193 T02560233
Conditions at: KNKT (CHERRY POINT , NC, US) observed 0256 UTC 09 August 2022
Temperature: 25.6°C (78°F)
Dewpoint: 23.3°C (74°F) [RH = 87%]
Pressure (altimeter): 30.11 inches Hg (1019.7 mb)
[Sea-level pressure: 1019.3 mb]
Winds: from the S (190 degrees) at 7 MPH (6 knots; 3.1 m/s)
Visibility: 7 miles (11 km)
Ceiling: at least 12,000 feet AGL
Clouds: clear skies
Weather: no significant weather observed at this time

Forecast for: AMD
Text: TAF AMD KNKT 1010/1109 21010KT 9999 FEW040 SCT120 QNH3002INS
Forecast period: 1000 to 2200 UTC 10 August 2022
Forecast type: FROM: standard forecast or significant change
Winds: from the SSW (210 degrees) at 12 MPH (10 knots; 5.1 m/s)
Visibility: 6 or more miles (10+ km)
Ceiling: at least 12,000 feet AGL
Clouds: few clouds at 4000 feet AGL
scattered clouds at 12000 feet AGL
Weather: no significant weather forecast for this period
Text: TEMPO 1017/1022 24010G20KT 4800 -TSRA BR BKN035CB
Forecast period: 1700 to 2200 UTC 10 August 2022
Forecast type: TEMPORARY: The following changes expected for less than half the time period
Winds: from the WSW (240 degrees) at 12 MPH (10 knots; 5.1 m/s)
gusting to 23 MPH (20 knots; 10.3 m/s)
Visibility: 2.98 miles (4.80 km)
Ceiling: 3500 feet AGL
Clouds: broken clouds at 3500 feet AGL
Weather: -TSRA BR  (light rain associated with thunderstorm(s), mist)
Text: FM102200 26010KT 9999 SCT040 QNH3000INS T25/1011Z T33/1017Z AMD 1010
Forecast period: 2200 UTC 10 August 2022 to 0900 UTC 11 August 2022
Forecast type: FROM: standard forecast or significant change
Winds: from the W (260 degrees) at 12 MPH (10 knots; 5.1 m/s)
Visibility: 6 or more miles (10+ km)
Ceiling: at least 12,000 feet AGL
Clouds: scattered clouds at 4000 feet AGL
Weather: no significant weather forecast for this period